Brookley Field, Alabama
Current Conditions -  °F | °C
As of 3:53 PM on Sunday 23 Nov 2014 (Local Time) from KBFM Reporting Station
Scattered Clouds Scattered Clouds  
Wind Chill: 69°   Ceiling: Unl
Heat Index: 69°   Visibility: 10mi
Dew Point: 62°   Wind: 13mph
Humidity: 78%   Direction: 210°SSW
Pressure: 29.7"   Gusts: 25mph
Location:  30.641°N, 88.065°W
Report Text: KBFM 232153Z 21011G22KT 10SM SCT019 21/17 A2970 RMK AO2 SLP057 T02060167
Loading
Personal Weather Stations






























Interactive Weather Map New forecast layout! Learn more

10-Day Weather Forecast

Advertisements
Track Severe Weather on mobile